Terminal Aerodrome Forecast
Issued by NWS Quad Cities IA IL

Home | Current Version | Previous Version | Text Only | Print | Product List | Glossary On
Versions: 1 2 3 4 5 6 7 8 9 10 11 12 13 14 15 16 17 18
000
FTUS43 KDVN 261700
TAFDBQ
TAF
KDBQ 261721Z 2618/2718 21007KT P6SM BKN200
     FM270100 VRB04KT P6SM BKN035 OVC150
     FM270600 03006KT 6SM -DZ BR OVC010
     FM270800 05006KT 3SM -RA BR OVC008
     FM271500 28014KT 4SM BR OVC006=

USA.gov is the U.S. government's official web portal to all federal, state and local government web resources and services.